createdAt,value
2022-08-09T00:01:55.522Z,54.92
2022-08-09T00:04:34.613Z,54.98
2022-08-09T00:07:07.882Z,55.10
2022-08-09T00:09:39.653Z,55.22
2022-08-09T00:12:15.592Z,55.28
2022-08-09T00:14:56.618Z,55.36
2022-08-09T00:18:10.893Z,55.30
2022-08-09T00:20:15.290Z,55.65
2022-08-09T00:22:47.299Z,55.91
2022-08-09T00:25:23.600Z,56.05
2022-08-09T00:28:01.241Z,56.18
2022-08-09T00:30:33.993Z,56.44
2022-08-09T00:33:02.066Z,56.35
2022-08-09T00:35:42.859Z,56.44
2022-08-09T00:38:12.997Z,56.66
2022-08-09T00:40:52.440Z,56.61
2022-08-09T00:44:16.063Z,56.56
2022-08-09T00:46:14.606Z,56.62
2022-08-09T00:49:00.157Z,56.68
2022-08-09T00:51:33.785Z,56.75
2022-08-09T00:54:11.782Z,56.77
2022-08-09T00:56:40.455Z,56.72
2022-08-09T00:59:10.822Z,56.79
2022-08-09T01:01:44.764Z,56.88
2022-08-09T01:04:20.182Z,56.83
2022-08-09T01:07:14.038Z,56.84
2022-08-09T01:09:55.552Z,56.84
2022-08-09T01:12:30.205Z,56.83
2022-08-09T01:15:05.845Z,56.90
2022-08-09T01:18:05.081Z,56.67
2022-08-09T01:20:47.478Z,56.88
2022-08-09T01:24:03.222Z,56.86
2022-08-09T01:26:53.636Z,56.89
2022-08-09T01:29:56.015Z,56.89
2022-08-09T01:32:46.221Z,56.92
2022-08-09T01:35:38.564Z,56.88
2022-08-09T01:38:15.009Z,57.06
2022-08-09T01:41:05.229Z,57.17
2022-08-09T01:43:41.977Z,57.07
2022-08-09T01:46:26.900Z,57.01
2022-08-09T01:49:09.416Z,57.57
2022-08-09T01:51:54.368Z,57.75
2022-08-09T01:54:32.921Z,57.94
2022-08-09T01:57:08.137Z,57.95
2022-08-09T01:59:41.051Z,58.16
2022-08-09T02:02:30.111Z,58.28
2022-08-09T02:05:15.752Z,58.50
2022-08-09T02:08:39.297Z,58.79
2022-08-09T02:10:59.419Z,58.83
2022-08-09T02:13:37.419Z,59.14
2022-08-09T02:16:11.724Z,59.12
2022-08-09T02:18:42.849Z,59.47
2022-08-09T02:21:22.095Z,59.54
2022-08-09T02:23:54.998Z,59.75
2022-08-09T02:26:28.204Z,60.00
2022-08-09T02:29:00.759Z,60.13
2022-08-09T02:31:36.247Z,60.35
2022-08-09T02:34:13.788Z,60.56
2022-08-09T02:37:03.820Z,60.60
2022-08-09T02:39:44.517Z,60.86
2022-08-09T02:42:24.905Z,61.19
2022-08-09T02:45:00.938Z,61.07
2022-08-09T02:47:33.732Z,61.30
2022-08-09T02:50:24.380Z,61.32
2022-08-09T02:53:00.289Z,61.30
2022-08-09T02:55:46.802Z,61.44
2022-08-09T02:58:35.808Z,61.40
2022-08-09T03:01:08.004Z,61.50
2022-08-09T03:04:16.676Z,61.50
2022-08-09T03:06:29.608Z,61.48
2022-08-09T03:09:00.396Z,61.43
2022-08-09T03:12:04.329Z,61.47
2022-08-09T03:14:18.889Z,61.60
2022-08-09T03:16:50.166Z,61.60
2022-08-09T03:19:59.311Z,61.64
2022-08-09T03:22:12.181Z,61.78
2022-08-09T03:24:52.402Z,61.92
2022-08-09T03:27:44.709Z,62.07
2022-08-09T03:30:30.015Z,62.01
2022-08-09T03:33:17.701Z,62.12
2022-08-09T03:36:13.484Z,62.13
2022-08-09T03:38:42.705Z,62.20
2022-08-09T03:41:18.456Z,62.19
2022-08-09T03:44:02.981Z,62.24
2022-08-09T03:46:36.773Z,62.53
2022-08-09T03:49:08.250Z,62.46
2022-08-09T03:51:56.093Z,62.39
2022-08-09T03:54:31.721Z,62.40
2022-08-09T03:57:04.322Z,62.40
2022-08-09T03:59:54.295Z,62.50
2022-08-09T04:02:29.551Z,62.51
2022-08-09T04:05:01.375Z,62.81
2022-08-09T04:07:53.581Z,62.92
2022-08-09T04:10:29.536Z,63.10
2022-08-09T04:13:03.997Z,63.00
2022-08-09T04:16:18.136Z,63.35
2022-08-09T04:18:21.916Z,63.55
2022-08-09T04:20:51.658Z,64.00
2022-08-09T04:23:23.414Z,63.77
2022-08-09T04:25:55.279Z,64.29
2022-08-09T04:28:30.751Z,64.05
2022-08-09T04:31:09.442Z,64.12
2022-08-09T04:33:52.528Z,64.24
2022-08-09T04:36:28.337Z,64.16
2022-08-09T04:39:01.877Z,64.43
2022-08-09T04:41:33.765Z,64.32
2022-08-09T04:44:14.738Z,64.40
2022-08-09T04:46:58.987Z,64.46
2022-08-09T04:49:53.631Z,64.31
2022-08-09T04:52:28.720Z,64.33
2022-08-09T04:55:00.338Z,64.13
2022-08-09T04:57:59.241Z,64.11
2022-08-09T05:00:18.460Z,64.10
2022-08-09T05:02:48.635Z,63.97
2022-08-09T05:05:32.052Z,63.84
2022-08-09T05:08:13.876Z,63.47
2022-08-09T05:10:43.261Z,63.03
2022-08-09T05:13:14.218Z,62.84
2022-08-09T05:15:48.171Z,62.65
2022-08-09T05:18:38.123Z,62.31
2022-08-09T05:21:13.457Z,61.94
2022-08-09T05:24:00.202Z,61.54
2022-08-09T05:26:37.081Z,61.37
2022-08-09T05:29:31.433Z,61.15
2022-08-09T05:32:02.449Z,61.16
2022-08-09T05:34:32.666Z,61.10
2022-08-09T05:37:06.841Z,60.85
2022-08-09T05:39:42.617Z,60.70
2022-08-09T05:42:17.427Z,60.41
2022-08-09T05:44:52.340Z,60.11
2022-08-09T05:47:25.097Z,59.87
2022-08-09T05:50:25.804Z,59.63
2022-08-09T05:52:52.177Z,59.63
2022-08-09T05:55:24.241Z,59.45
2022-08-09T05:57:57.652Z,59.34
2022-08-09T06:00:33.071Z,59.09
2022-08-09T06:03:03.785Z,58.74
2022-08-09T06:05:57.662Z,58.40
2022-08-09T06:08:26.936Z,58.23
2022-08-09T06:10:56.263Z,58.14
2022-08-09T06:13:28.300Z,57.57
2022-08-09T06:15:57.164Z,56.80
2022-08-09T06:18:28.529Z,56.34
2022-08-09T06:20:58.443Z,55.91
2022-08-09T06:23:55.785Z,55.72
2022-08-09T06:26:20.482Z,55.29
2022-08-09T06:29:00.425Z,55.01
2022-08-09T06:31:40.008Z,54.55
2022-08-09T06:34:22.772Z,54.44
2022-08-09T06:36:59.254Z,54.16
2022-08-09T06:39:48.562Z,53.94
2022-08-09T06:42:24.904Z,53.62
2022-08-09T06:45:00.262Z,53.29
2022-08-09T06:47:40.078Z,52.77
2022-08-09T06:50:14.498Z,52.58
2022-08-09T06:52:48.830Z,52.57
2022-08-09T06:55:22.278Z,52.18
2022-08-09T06:58:02.795Z,51.75
2022-08-09T07:00:50.576Z,51.29
2022-08-09T07:03:28.336Z,50.80
2022-08-09T07:06:04.736Z,50.82
2022-08-09T07:08:37.166Z,50.45
2022-08-09T07:11:12.435Z,50.25
2022-08-09T07:14:04.267Z,50.34
2022-08-09T07:16:42.655Z,50.00
2022-08-09T07:19:18.740Z,49.74
2022-08-09T07:21:57.609Z,49.50
2022-08-09T07:24:32.129Z,49.00
2022-08-09T07:27:27.146Z,48.81
2022-08-09T07:30:00.434Z,48.56
2022-08-09T07:32:32.044Z,48.41
2022-08-09T07:35:02.661Z,47.89
2022-08-09T07:37:43.566Z,47.78
2022-08-09T07:40:17.247Z,47.53
2022-08-09T07:42:56.977Z,47.47
2022-08-09T07:45:37.559Z,47.21
2022-08-09T07:48:07.999Z,47.06
2022-08-09T07:51:03.170Z,46.81
2022-08-09T07:54:05.203Z,46.25
2022-08-09T07:56:30.756Z,45.92
2022-08-09T07:59:00.112Z,45.50
2022-08-09T08:01:33.125Z,45.33
2022-08-09T08:04:03.338Z,45.06
2022-08-09T08:06:32.679Z,45.18
2022-08-09T08:09:07.564Z,44.89
2022-08-09T08:12:10.918Z,44.92
2022-08-09T08:14:35.255Z,44.90
2022-08-09T08:17:09.098Z,44.29
2022-08-09T08:19:40.875Z,43.90
2022-08-09T08:22:12.608Z,43.74
2022-08-09T08:24:42.293Z,42.94
2022-08-09T08:27:16.911Z,43.03
2022-08-09T08:29:49.973Z,42.87
2022-08-09T08:32:47.681Z,42.33
2022-08-09T08:35:08.617Z,42.49
2022-08-09T08:37:41.726Z,42.30
2022-08-09T08:40:25.596Z,42.41
2022-08-09T08:42:58.776Z,42.63
2022-08-09T08:45:37.433Z,42.69
2022-08-09T08:48:06.366Z,42.51
2022-08-09T08:50:41.609Z,42.17
2022-08-09T08:53:21.750Z,42.30
2022-08-09T08:55:52.593Z,42.07
2022-08-09T08:58:27.219Z,41.81
2022-08-09T09:00:57.957Z,41.42
2022-08-09T09:03:37.928Z,41.50
2022-08-09T09:06:10.291Z,41.35
2022-08-09T09:08:42.472Z,41.18
2022-08-09T09:11:17.164Z,41.37
2022-08-09T09:13:57.556Z,41.21
2022-08-09T09:16:34.408Z,41.26
2022-08-09T09:22:00.690Z,40.79
2022-08-09T09:24:34.651Z,40.81
2022-08-09T09:27:04.259Z,40.42
2022-08-09T09:30:09.324Z,40.36
2022-08-09T09:32:35.000Z,39.74
2022-08-09T09:35:10.018Z,39.30
2022-08-09T09:37:40.204Z,39.22
2022-08-09T09:40:11.793Z,38.56
2022-08-09T09:42:46.301Z,38.68
2022-08-09T09:45:25.848Z,38.32
2022-08-09T09:48:03.274Z,37.82
2022-08-09T09:50:49.568Z,37.76
2022-08-09T09:53:34.410Z,37.82
2022-08-09T09:56:19.781Z,37.76
2022-08-09T09:59:01.779Z,37.56
2022-08-09T10:01:38.049Z,37.30
2022-08-09T10:04:22.811Z,37.52
2022-08-09T10:07:03.500Z,36.86
2022-08-09T10:09:54.570Z,36.50
2022-08-09T10:12:28.440Z,36.51
2022-08-09T10:15:17.252Z,35.95
2022-08-09T10:17:56.674Z,35.61
2022-08-09T10:20:35.386Z,35.78
2022-08-09T10:23:20.316Z,35.95
2022-08-09T10:26:07.524Z,36.32
2022-08-09T10:28:40.606Z,36.31
2022-08-09T10:34:10.954Z,35.55
2022-08-09T10:36:57.561Z,35.82
2022-08-09T10:39:28.458Z,36.01
2022-08-09T10:41:57.934Z,35.66
2022-08-09T10:44:31.813Z,35.78
2022-08-09T10:48:12.343Z,34.93
2022-08-09T10:50:31.194Z,34.86
2022-08-09T10:53:28.008Z,34.83
2022-08-09T10:56:26.767Z,34.95
2022-08-09T10:58:57.130Z,34.78
2022-08-09T11:03:15.648Z,34.55
2022-08-09T11:04:32.856Z,34.69
2022-08-09T11:07:03.849Z,34.56
2022-08-09T11:09:38.379Z,34.43
2022-08-09T11:12:18.185Z,34.62
2022-08-09T11:14:58.998Z,34.95
2022-08-09T11:17:27.408Z,34.52
2022-08-09T11:20:22.313Z,34.80
2022-08-09T11:22:55.527Z,34.86
2022-08-09T11:25:44.742Z,34.26
2022-08-09T11:28:54.053Z,33.95
2022-08-09T11:31:39.033Z,33.59
2022-08-09T11:34:23.151Z,33.70
2022-08-09T11:36:52.086Z,33.46
2022-08-09T11:39:20.211Z,33.59
2022-08-09T11:41:48.899Z,33.30
2022-08-09T11:44:17.633Z,33.17
2022-08-09T11:46:58.063Z,33.14
2022-08-09T11:50:54.223Z,32.83
2022-08-09T11:53:15.523Z,31.46
2022-08-09T11:56:02.498Z,31.43
2022-08-09T11:58:33.731Z,30.77
2022-08-09T12:01:08.772Z,30.45
2022-08-09T12:03:57.427Z,30.66
2022-08-09T12:06:32.372Z,30.03
2022-08-09T12:09:05.957Z,29.80
2022-08-09T12:12:02.626Z,29.68
2022-08-09T12:14:37.206Z,29.34
2022-08-09T12:17:34.448Z,29.26
2022-08-09T12:20:16.243Z,28.53
2022-08-09T12:22:50.546Z,28.58
2022-08-09T12:25:31.858Z,28.37
2022-08-09T12:29:12.642Z,28.18
2022-08-09T12:31:11.125Z,28.26
2022-08-09T12:34:01.146Z,28.25
2022-08-09T12:36:31.776Z,28.13
2022-08-09T12:39:01.071Z,27.76
2022-08-09T12:41:39.189Z,27.47
2022-08-09T12:44:12.758Z,27.34
2022-08-09T12:46:49.192Z,27.19
2022-08-09T12:49:19.153Z,27.11
2022-08-09T12:52:02.850Z,26.59
2022-08-09T12:56:11.133Z,26.15
2022-08-09T12:57:47.120Z,25.61
2022-08-09T13:00:25.156Z,25.56
2022-08-09T13:02:58.645Z,25.04
2022-08-09T13:05:50.702Z,25.36
2022-08-09T13:08:40.092Z,24.72
2022-08-09T13:11:13.130Z,24.45
2022-08-09T13:14:41.499Z,24.56
2022-08-09T13:17:15.871Z,24.71
2022-08-09T13:20:07.430Z,24.85
2022-08-09T13:23:01.700Z,25.38
2022-08-09T13:25:24.378Z,25.73
2022-08-09T13:27:55.750Z,25.99
2022-08-09T13:30:50.252Z,26.18
2022-08-09T13:33:35.993Z,26.23
2022-08-09T13:36:39.606Z,25.99
2022-08-09T13:39:08.223Z,25.55
2022-08-09T13:41:59.096Z,25.09
2022-08-09T13:44:30.142Z,24.58
2022-08-09T13:47:26.616Z,24.50
2022-08-09T13:49:58.271Z,24.49
2022-08-09T13:52:31.195Z,24.60
2022-08-09T13:55:04.951Z,25.06
2022-08-09T13:57:41.068Z,25.03
2022-08-09T14:00:15.502Z,24.93
2022-08-09T14:03:04.411Z,25.06
2022-08-09T14:05:58.426Z,24.81
2022-08-09T14:08:23.261Z,25.13
2022-08-09T14:10:52.847Z,25.80
2022-08-09T14:14:14.746Z,26.34
2022-08-09T14:16:14.968Z,26.85
2022-08-09T14:18:49.656Z,27.25
2022-08-09T14:21:22.379Z,27.37
2022-08-09T14:23:55.372Z,27.82
2022-08-09T14:26:32.547Z,27.96
2022-08-09T14:29:25.674Z,28.32
2022-08-09T14:31:56.486Z,28.86
2022-08-09T14:34:27.552Z,29.10
2022-08-09T14:37:06.564Z,29.05
2022-08-09T14:39:46.775Z,29.37
2022-08-09T14:42:30.502Z,29.52
2022-08-09T14:46:57.173Z,29.45
2022-08-09T14:48:00.176Z,29.13
2022-08-09T14:50:33.034Z,29.35
2022-08-09T14:53:06.384Z,29.31
2022-08-09T14:55:47.754Z,28.85
2022-08-09T14:58:19.928Z,28.40
2022-08-09T15:00:51.074Z,28.23
2022-08-09T15:03:22.096Z,27.78
2022-08-09T15:05:54.838Z,27.83
2022-08-09T15:08:26.699Z,27.47
2022-08-09T15:11:00.643Z,27.61
2022-08-09T15:13:29.943Z,27.57
2022-08-09T15:16:17.586Z,27.67
2022-08-09T15:18:48.473Z,28.03
2022-08-09T15:22:00.490Z,28.24
2022-08-09T15:24:12.366Z,28.33
2022-08-09T15:26:46.026Z,28.17
2022-08-09T15:30:48.739Z,28.18
2022-08-09T15:32:04.699Z,27.81
2022-08-09T15:34:35.460Z,27.74
2022-08-09T15:37:24.318Z,27.36
2022-08-09T15:40:11.459Z,26.80
2022-08-09T15:42:42.648Z,26.27
2022-08-09T15:45:12.750Z,26.04
2022-08-09T15:47:51.877Z,25.72
2022-08-09T15:50:30.611Z,24.88
2022-08-09T15:53:06.115Z,24.26
2022-08-09T15:56:04.542Z,24.25
2022-08-09T15:58:26.862Z,23.85
2022-08-09T16:00:56.525Z,24.18
2022-08-09T16:03:29.622Z,23.99
2022-08-09T16:06:27.243Z,23.85
2022-08-09T16:08:59.138Z,23.58
2022-08-09T16:11:30.872Z,23.49
2022-08-09T16:14:07.114Z,23.35
2022-08-09T16:16:41.806Z,23.41
2022-08-09T16:19:13.899Z,22.95
2022-08-09T16:21:48.758Z,22.24
2022-08-09T16:24:33.577Z,22.10
2022-08-09T16:27:04.816Z,21.91
2022-08-09T16:29:37.442Z,21.76
2022-08-09T16:32:18.885Z,21.73
2022-08-09T16:34:58.349Z,21.40
2022-08-09T16:37:56.165Z,21.15
2022-08-09T16:40:20.469Z,20.73
2022-08-09T16:42:59.578Z,20.85
2022-08-09T16:45:30.428Z,20.63
2022-08-09T16:48:50.782Z,20.46
2022-08-09T16:50:49.900Z,20.03
2022-08-09T16:53:32.274Z,20.03
2022-08-09T16:56:09.342Z,19.81
2022-08-09T16:58:39.808Z,19.94
2022-08-09T17:01:19.498Z,20.04
2022-08-09T17:03:54.497Z,20.12
2022-08-09T17:06:29.209Z,20.12
2022-08-09T17:09:12.025Z,20.17
2022-08-09T17:11:48.170Z,20.07
2022-08-09T17:14:27.945Z,20.10
2022-08-09T17:16:59.833Z,20.20
2022-08-09T17:19:47.329Z,20.16
2022-08-09T17:22:24.188Z,20.31
2022-08-09T17:25:02.989Z,20.54
2022-08-09T17:27:34.519Z,20.89
2022-08-09T17:30:14.235Z,21.03
2022-08-09T17:32:44.443Z,21.41
2022-08-09T17:35:14.692Z,21.55
2022-08-09T17:38:02.525Z,21.85
2022-08-09T17:40:34.530Z,22.14
2022-08-09T17:43:32.362Z,22.48
2022-08-09T17:46:03.801Z,22.60
2022-08-09T17:48:38.993Z,22.99
2022-08-09T17:51:18.451Z,23.28
2022-08-09T17:53:52.323Z,23.71
2022-08-09T17:56:28.819Z,23.92
2022-08-09T17:59:03.260Z,24.57
2022-08-09T18:01:41.434Z,24.75
2022-08-09T18:04:20.368Z,25.00
2022-08-09T18:06:54.561Z,25.35
2022-08-09T18:09:40.356Z,25.90
2022-08-09T18:12:17.759Z,26.40
2022-08-09T18:14:53.586Z,26.79
2022-08-09T18:17:27.075Z,27.23
2022-08-09T18:20:55.000Z,27.55
2022-08-09T18:23:05.652Z,27.93
2022-08-09T18:25:51.063Z,28.18
2022-08-09T18:30:39.810Z,28.70
2022-08-09T18:31:24.971Z,29.28
2022-08-09T18:34:00.615Z,29.57
2022-08-09T18:36:32.363Z,29.96
2022-08-09T18:39:04.182Z,30.57
2022-08-09T18:41:34.294Z,30.79
2022-08-09T18:44:12.971Z,31.40
2022-08-09T18:46:46.177Z,31.82
2022-08-09T18:49:19.463Z,32.27
2022-08-09T18:51:55.646Z,32.57
2022-08-09T18:54:28.500Z,32.76
2022-08-09T18:57:06.193Z,33.09
2022-08-09T18:59:37.304Z,33.19
2022-08-09T19:02:19.125Z,33.38
2022-08-09T19:04:47.431Z,33.70
2022-08-09T19:07:16.492Z,34.07
2022-08-09T19:10:14.096Z,34.23
2022-08-09T19:12:36.622Z,34.55
2022-08-09T19:15:08.474Z,35.12
2022-08-09T19:17:54.750Z,35.59
2022-08-09T19:20:25.155Z,35.98
2022-08-09T19:22:54.491Z,36.42
2022-08-09T19:25:42.647Z,36.37
2022-08-09T19:28:13.046Z,36.75
2022-08-09T19:30:44.230Z,37.05
2022-08-09T19:33:19.702Z,37.40
2022-08-09T19:35:57.272Z,37.71
2022-08-09T19:38:27.842Z,38.18
2022-08-09T19:40:57.851Z,38.21
2022-08-09T19:44:02.057Z,38.49
2022-08-09T19:46:17.312Z,38.81
2022-08-09T19:50:08.109Z,39.04
2022-08-09T19:51:55.264Z,39.26
2022-08-09T19:54:25.695Z,39.33
2022-08-09T19:56:55.520Z,39.16
2022-08-09T19:59:57.300Z,39.08
2022-08-09T20:02:17.126Z,38.92
2022-08-09T20:05:02.251Z,39.02
2022-08-09T20:07:59.044Z,39.00
2022-08-09T20:10:34.391Z,39.22
2022-08-09T20:13:08.098Z,39.34
2022-08-09T20:16:34.581Z,39.52
2022-08-09T20:18:27.879Z,39.82
2022-08-09T20:20:57.417Z,40.10
2022-08-09T20:23:38.954Z,40.39
2022-08-09T20:26:10.076Z,40.61
2022-08-09T20:28:48.483Z,40.76
2022-08-09T20:31:18.234Z,40.89
2022-08-09T20:33:58.174Z,41.04
2022-08-09T20:36:27.485Z,41.17
2022-08-09T20:39:27.977Z,41.48
2022-08-09T20:41:43.822Z,41.78
2022-08-09T20:44:12.963Z,41.88
2022-08-09T20:46:44.744Z,42.16
2022-08-09T20:49:15.722Z,42.45
2022-08-09T20:51:50.405Z,42.54
2022-08-09T20:54:19.888Z,42.76
2022-08-09T20:56:49.690Z,42.94
2022-08-09T20:59:24.960Z,43.08
2022-08-09T21:02:17.451Z,43.38
2022-08-09T21:05:55.076Z,43.65
2022-08-09T21:07:40.283Z,43.71
2022-08-09T21:10:10.919Z,43.98
2022-08-09T21:12:39.472Z,44.11
2022-08-09T21:15:10.788Z,44.38
2022-08-09T21:18:24.831Z,44.65
2022-08-09T21:20:32.554Z,44.75
2022-08-09T21:23:04.325Z,45.00
2022-08-09T21:25:56.229Z,45.12
2022-08-09T21:28:34.913Z,45.37
2022-08-09T21:31:17.241Z,45.44
2022-08-09T21:33:50.237Z,45.69
2022-08-09T21:36:28.165Z,45.84
2022-08-09T21:38:59.471Z,45.88
2022-08-09T21:42:05.232Z,45.97
2022-08-09T21:44:34.800Z,46.34
2022-08-09T21:47:08.996Z,46.31
2022-08-09T21:49:43.193Z,46.53
2022-08-09T21:52:17.663Z,46.67
2022-08-09T21:55:02.876Z,46.87
2022-08-09T21:57:38.894Z,46.91
2022-08-09T22:00:32.330Z,47.39
2022-08-09T22:03:04.901Z,47.52
2022-08-09T22:05:37.668Z,47.69
2022-08-09T22:08:14.583Z,47.75
2022-08-09T22:11:05.083Z,47.89
2022-08-09T22:13:36.858Z,48.08
2022-08-09T22:16:07.703Z,48.25
2022-08-09T22:18:52.813Z,48.47
2022-08-09T22:21:27.508Z,48.53
2022-08-09T22:24:16.620Z,48.79
2022-08-09T22:26:50.971Z,48.77
2022-08-09T22:29:26.866Z,48.95
2022-08-09T22:32:01.122Z,49.12
2022-08-09T22:34:29.088Z,49.33
2022-08-09T22:36:58.500Z,49.44
2022-08-09T22:39:55.448Z,49.61
2022-08-09T22:42:22.296Z,49.67
2022-08-09T22:44:59.875Z,49.69
2022-08-09T22:48:11.353Z,49.89
2022-08-09T22:50:18.730Z,49.99
2022-08-09T22:52:47.011Z,50.17
2022-08-09T22:55:24.049Z,50.34
2022-08-09T22:57:59.832Z,50.38
2022-08-09T23:00:29.884Z,50.54
2022-08-09T23:02:58.467Z,50.81
2022-08-09T23:05:26.499Z,50.79
2022-08-09T23:08:29.139Z,50.99
2022-08-09T23:10:58.089Z,51.28
2022-08-09T23:13:26.440Z,51.37
2022-08-09T23:16:02.836Z,51.61
2022-08-09T23:18:31.940Z,51.74
2022-08-09T23:21:00.029Z,51.63
2022-08-09T23:23:28.764Z,51.77
2022-08-09T23:25:57.075Z,51.97
2022-08-09T23:28:26.063Z,52.02
2022-08-09T23:30:53.851Z,52.04
2022-08-09T23:33:22.342Z,52.06
2022-08-09T23:36:04.679Z,52.22
2022-08-09T23:38:49.136Z,52.36
2022-08-09T23:41:28.851Z,52.61
2022-08-09T23:44:02.400Z,52.70
2022-08-09T23:46:31.727Z,52.93
2022-08-09T23:49:01.930Z,53.06
2022-08-09T23:51:30.751Z,53.10
2022-08-09T23:54:02.497Z,53.29
2022-08-09T23:56:52.884Z,53.47
2022-08-09T23:59:23.609Z,53.48
